createdAt,value
2023-07-30T00:00:34.364Z,22.36
2023-07-30T00:03:01.138Z,22.31
2023-07-30T00:05:27.832Z,22.34
2023-07-30T00:07:55.105Z,22.31
2023-07-30T00:10:21.921Z,22.27
2023-07-30T00:12:48.334Z,22.23
2023-07-30T00:15:14.886Z,22.15
2023-07-30T00:17:41.409Z,22.14
2023-07-30T00:20:09.863Z,22.10
2023-07-30T00:22:36.510Z,22.09
2023-07-30T00:25:03.063Z,21.73
2023-07-30T00:27:29.588Z,22.10
2023-07-30T00:29:56.815Z,22.04
2023-07-30T00:32:23.341Z,22.03
2023-07-30T00:34:50.193Z,21.98
2023-07-30T00:37:16.699Z,21.98
2023-07-30T00:39:43.219Z,21.98
2023-07-30T00:42:09.742Z,22.01
2023-07-30T00:44:36.208Z,22.04
2023-07-30T00:47:02.673Z,22.01
2023-07-30T00:49:29.172Z,21.98
2023-07-30T00:51:57.564Z,21.91
2023-07-30T00:54:24.658Z,21.92
2023-07-30T00:56:52.246Z,21.94
2023-07-30T00:59:19.016Z,21.95
2023-07-30T01:01:45.612Z,21.95
2023-07-30T01:04:12.169Z,21.92
2023-07-30T01:06:38.661Z,21.85
2023-07-30T01:09:05.210Z,21.77
2023-07-30T01:11:31.829Z,21.71
2023-07-30T01:13:58.517Z,21.64
2023-07-30T01:16:25.074Z,21.57
2023-07-30T01:18:52.232Z,21.56
2023-07-30T01:21:18.800Z,21.51
2023-07-30T01:23:45.341Z,21.47
2023-07-30T01:26:13.408Z,21.48
2023-07-30T01:28:43.103Z,21.45
2023-07-30T01:31:09.595Z,21.40
2023-07-30T01:33:36.080Z,21.38
2023-07-30T01:36:02.579Z,21.35
2023-07-30T01:38:29.172Z,21.37
2023-07-30T01:40:55.611Z,21.44
2023-07-30T01:43:22.120Z,21.44
2023-07-30T01:45:49.100Z,21.47
2023-07-30T01:48:15.627Z,21.48
2023-07-30T01:50:42.187Z,21.44
2023-07-30T01:53:08.724Z,21.43
2023-07-30T01:55:35.658Z,21.38
2023-07-30T01:58:02.245Z,21.35
2023-07-30T02:00:28.832Z,21.31
2023-07-30T02:03:03.968Z,21.24
2023-07-30T02:05:30.580Z,21.28
2023-07-30T02:07:57.112Z,21.32
2023-07-30T02:10:24.714Z,21.34
2023-07-30T02:12:51.238Z,21.37
2023-07-30T02:15:17.854Z,21.40
2023-07-30T02:17:44.428Z,21.40
2023-07-30T02:20:11.095Z,21.40
2023-07-30T02:22:37.627Z,21.42
2023-07-30T02:25:04.584Z,21.37
2023-07-30T02:27:31.100Z,21.39
2023-07-30T02:29:57.658Z,21.41
2023-07-30T02:32:24.283Z,21.39
2023-07-30T02:34:50.824Z,21.31
2023-07-30T02:37:17.425Z,21.21
2023-07-30T02:39:43.955Z,21.15
2023-07-30T02:42:10.457Z,21.18
2023-07-30T02:44:36.986Z,21.24
2023-07-30T02:47:03.471Z,21.28
2023-07-30T02:49:30.051Z,21.32
2023-07-30T02:51:56.972Z,21.34
2023-07-30T02:54:23.746Z,21.36
2023-07-30T02:56:50.328Z,21.39
2023-07-30T02:59:16.814Z,21.38
2023-07-30T03:01:43.623Z,21.36
2023-07-30T03:04:10.196Z,21.37
2023-07-30T03:06:36.789Z,21.34
2023-07-30T03:09:03.867Z,21.31
2023-07-30T03:11:30.449Z,21.29
2023-07-30T03:13:56.949Z,21.27
2023-07-30T03:16:23.871Z,21.28
2023-07-30T03:18:51.579Z,21.32
2023-07-30T03:21:18.090Z,21.33
2023-07-30T03:23:45.460Z,21.33
2023-07-30T03:26:12.398Z,21.35
2023-07-30T03:28:40.788Z,21.33
2023-07-30T03:31:07.855Z,21.34
2023-07-30T03:33:34.801Z,21.34
2023-07-30T03:36:01.917Z,21.31
2023-07-30T03:38:28.970Z,21.31
2023-07-30T03:40:56.655Z,21.33
2023-07-30T03:43:23.157Z,21.34
2023-07-30T03:45:49.795Z,21.34
2023-07-30T03:48:16.655Z,21.34
2023-07-30T03:50:43.277Z,21.34
2023-07-30T03:53:09.800Z,21.26
2023-07-30T03:55:36.322Z,21.18
2023-07-30T03:58:03.134Z,21.12
2023-07-30T04:00:30.460Z,21.12
2023-07-30T04:02:57.268Z,21.13
2023-07-30T04:05:23.789Z,21.13
2023-07-30T04:07:50.318Z,21.14
2023-07-30T04:10:16.946Z,21.16
2023-07-30T04:12:43.458Z,21.17
2023-07-30T04:15:10.079Z,21.16
2023-07-30T04:17:37.612Z,21.16
2023-07-30T04:20:05.418Z,21.20
2023-07-30T04:22:32.083Z,21.26
2023-07-30T04:24:58.583Z,21.32
2023-07-30T04:27:25.947Z,21.37
2023-07-30T04:29:54.002Z,21.40
2023-07-30T04:32:20.508Z,21.38
2023-07-30T04:34:46.956Z,21.37
2023-07-30T04:37:13.602Z,21.35
2023-07-30T04:39:40.241Z,21.32
2023-07-30T04:42:07.181Z,21.31
2023-07-30T04:44:33.726Z,21.27
2023-07-30T04:47:07.291Z,21.28
2023-07-30T04:49:33.999Z,21.30
2023-07-30T04:52:02.312Z,21.34
2023-07-30T04:54:28.822Z,21.35
2023-07-30T04:56:55.287Z,21.39
2023-07-30T04:59:21.768Z,21.40
2023-07-30T05:01:48.501Z,21.39
2023-07-30T05:04:15.501Z,21.36
2023-07-30T05:06:42.564Z,21.35
2023-07-30T05:09:09.833Z,21.38
2023-07-30T05:11:37.045Z,21.39
2023-07-30T05:14:04.324Z,21.36
2023-07-30T05:16:30.920Z,21.36
2023-07-30T05:18:57.831Z,21.42
2023-07-30T05:21:25.016Z,21.38
2023-07-30T05:23:52.037Z,21.37
2023-07-30T05:26:19.097Z,21.41
2023-07-30T05:28:45.974Z,21.45
2023-07-30T05:31:12.650Z,21.45
2023-07-30T05:33:39.295Z,21.48
2023-07-30T05:36:07.322Z,21.54
2023-07-30T05:38:33.830Z,21.58
2023-07-30T05:41:00.721Z,21.56
2023-07-30T05:43:27.875Z,21.60
2023-07-30T05:45:54.830Z,21.56
2023-07-30T05:48:21.949Z,21.51
2023-07-30T05:50:48.850Z,21.51
2023-07-30T05:53:15.982Z,21.47
2023-07-30T05:55:43.013Z,21.37
2023-07-30T05:58:10.129Z,21.34
2023-07-30T06:00:36.892Z,21.31
2023-07-30T06:03:04.669Z,21.29
2023-07-30T06:05:31.793Z,21.27
2023-07-30T06:07:58.869Z,21.33
2023-07-30T06:10:25.778Z,21.41
2023-07-30T06:12:52.774Z,21.50
2023-07-30T06:15:20.012Z,21.58
2023-07-30T06:17:46.907Z,21.69
2023-07-30T06:20:13.924Z,21.71
2023-07-30T06:22:40.530Z,21.73
2023-07-30T06:25:07.405Z,21.67
2023-07-30T06:27:34.409Z,21.64
2023-07-30T06:30:01.580Z,21.62
2023-07-30T06:32:28.619Z,21.66
2023-07-30T06:34:55.559Z,21.73
2023-07-30T06:37:22.238Z,21.85
2023-07-30T06:39:49.112Z,21.93
2023-07-30T06:42:15.838Z,22.01
2023-07-30T06:44:42.740Z,22.11
2023-07-30T06:47:09.729Z,22.21
2023-07-30T06:49:36.721Z,22.32
2023-07-30T06:52:03.433Z,22.37
2023-07-30T06:54:30.960Z,22.37
2023-07-30T06:56:57.930Z,22.40
2023-07-30T06:59:24.916Z,22.33
2023-07-30T07:01:51.801Z,22.31
2023-07-30T07:04:18.368Z,22.40
2023-07-30T07:06:45.178Z,22.43
2023-07-30T07:09:12.388Z,22.53
2023-07-30T07:11:39.432Z,22.57
2023-07-30T07:14:06.455Z,22.61
2023-07-30T07:16:33.575Z,22.63
2023-07-30T07:19:00.541Z,22.73
2023-07-30T07:21:27.879Z,22.80
2023-07-30T07:23:54.877Z,22.81
2023-07-30T07:26:21.501Z,22.71
2023-07-30T07:28:48.296Z,22.52
2023-07-30T07:31:15.227Z,21.99
2023-07-30T07:33:42.272Z,22.15
2023-07-30T07:36:09.345Z,21.93
2023-07-30T07:38:36.323Z,21.56
2023-07-30T07:41:03.378Z,21.14
2023-07-30T07:43:30.274Z,20.84
2023-07-30T07:45:57.403Z,20.73
2023-07-30T07:48:24.821Z,20.71
2023-07-30T07:50:51.943Z,20.67
2023-07-30T07:53:18.817Z,20.61
2023-07-30T07:55:45.331Z,20.54
2023-07-30T07:58:12.189Z,20.64
2023-07-30T08:00:39.260Z,20.66
2023-07-30T08:03:06.032Z,20.65
2023-07-30T08:05:32.845Z,20.80
2023-07-30T08:07:59.480Z,20.94
2023-07-30T08:10:26.344Z,21.00
2023-07-30T08:12:53.711Z,21.04
2023-07-30T08:15:20.516Z,21.09
2023-07-30T08:17:47.678Z,21.14
2023-07-30T08:20:14.662Z,21.24
2023-07-30T08:22:41.360Z,21.35
2023-07-30T08:25:08.400Z,21.41
2023-07-30T08:27:35.160Z,21.55
2023-07-30T08:30:02.119Z,21.71
2023-07-30T08:32:29.096Z,21.83
2023-07-30T08:34:55.919Z,22.06
2023-07-30T08:37:22.800Z,22.26
2023-07-30T08:39:50.523Z,22.44
2023-07-30T08:42:17.841Z,22.59
2023-07-30T08:44:45.096Z,22.72
2023-07-30T08:47:12.091Z,22.69
2023-07-30T08:49:38.858Z,22.88
2023-07-30T08:52:05.864Z,23.17
2023-07-30T08:54:32.897Z,23.46
2023-07-30T08:56:59.770Z,23.71
2023-07-30T08:59:26.668Z,23.85
2023-07-30T09:01:53.655Z,23.78
2023-07-30T09:04:20.661Z,23.61
2023-07-30T09:06:53.601Z,23.70
2023-07-30T09:09:20.920Z,23.65
2023-07-30T09:11:56.865Z,23.72
2023-07-30T09:14:23.460Z,23.65
2023-07-30T09:16:52.473Z,23.81
2023-07-30T09:19:19.341Z,23.81
2023-07-30T09:21:46.428Z,23.89
2023-07-30T09:24:13.219Z,23.91
2023-07-30T09:26:47.173Z,23.81
2023-07-30T09:29:14.778Z,23.55
2023-07-30T09:31:46.990Z,23.44
2023-07-30T09:34:16.752Z,23.36
2023-07-30T09:36:44.406Z,23.46
2023-07-30T09:39:17.460Z,23.45
2023-07-30T09:41:44.267Z,23.29
2023-07-30T09:44:11.362Z,23.21
2023-07-30T09:46:45.222Z,23.12
2023-07-30T09:49:12.160Z,22.87
2023-07-30T09:51:40.229Z,22.40
2023-07-30T09:54:07.822Z,21.91
2023-07-30T09:56:35.459Z,21.74
2023-07-30T09:59:02.143Z,21.65
2023-07-30T10:01:29.026Z,21.58
2023-07-30T10:03:57.380Z,21.47
2023-07-30T10:06:28.735Z,21.41
2023-07-30T10:08:56.245Z,21.36
2023-07-30T10:11:23.395Z,21.43
2023-07-30T10:13:50.013Z,21.57
2023-07-30T10:16:17.090Z,21.81
2023-07-30T10:18:44.515Z,22.02
2023-07-30T10:21:12.216Z,22.36
2023-07-30T10:23:48.393Z,22.63
2023-07-30T10:26:15.321Z,22.67
2023-07-30T10:28:45.160Z,22.71
2023-07-30T10:31:14.549Z,22.92
2023-07-30T10:33:48.635Z,23.18
2023-07-30T10:36:15.600Z,23.48
2023-07-30T10:38:43.471Z,23.57
2023-07-30T10:41:11.804Z,23.58
2023-07-30T10:43:42.579Z,23.74
2023-07-30T10:46:10.746Z,23.86
2023-07-30T10:48:39.152Z,23.86
2023-07-30T10:51:07.051Z,23.87
2023-07-30T10:53:33.895Z,23.93
2023-07-30T10:56:02.838Z,24.05
2023-07-30T10:58:33.338Z,24.26
2023-07-30T11:01:00.516Z,24.56
2023-07-30T11:03:30.493Z,24.89
2023-07-30T11:05:57.622Z,24.96
2023-07-30T11:08:40.797Z,24.87
2023-07-30T11:11:08.558Z,24.89
2023-07-30T11:13:39.321Z,24.84
2023-07-30T11:16:09.694Z,24.82
2023-07-30T11:18:37.423Z,24.74
2023-07-30T11:21:07.930Z,24.94
2023-07-30T11:23:35.631Z,25.19
2023-07-30T11:26:03.511Z,25.28
2023-07-30T11:28:33.752Z,25.42
2023-07-30T11:31:08.886Z,25.51
2023-07-30T11:33:43.383Z,25.59
2023-07-30T11:36:14.543Z,25.57
2023-07-30T11:38:41.616Z,25.80
2023-07-30T11:41:10.805Z,25.89
2023-07-30T11:43:42.494Z,25.95
2023-07-30T11:46:10.475Z,25.91
2023-07-30T11:48:37.950Z,26.03
2023-07-30T11:51:05.037Z,26.07
2023-07-30T11:53:52.700Z,26.20
2023-07-30T11:56:20.854Z,26.50
2023-07-30T11:58:48.997Z,26.81
2023-07-30T12:01:19.621Z,27.12
2023-07-30T12:03:46.558Z,27.49
2023-07-30T12:06:13.822Z,27.79
2023-07-30T12:08:41.206Z,27.98
2023-07-30T12:11:09.122Z,28.10
2023-07-30T12:13:43.212Z,28.08
2023-07-30T12:16:10.436Z,28.09
2023-07-30T12:18:37.207Z,28.13
2023-07-30T12:21:06.060Z,28.17
2023-07-30T12:23:33.220Z,28.14
2023-07-30T12:26:00.293Z,28.06
2023-07-30T12:28:27.435Z,27.72
2023-07-30T12:30:54.480Z,28.07
2023-07-30T12:33:21.290Z,28.16
2023-07-30T12:35:48.016Z,28.31
2023-07-30T12:38:16.139Z,28.37
2023-07-30T12:40:43.108Z,28.55
2023-07-30T12:43:10.334Z,28.78
2023-07-30T12:45:37.377Z,28.72
2023-07-30T12:48:04.619Z,28.42
2023-07-30T12:50:31.701Z,28.07
2023-07-30T12:52:58.718Z,27.95
2023-07-30T12:55:25.659Z,28.11
2023-07-30T12:57:52.735Z,28.33
2023-07-30T13:00:19.626Z,28.22
2023-07-30T13:02:46.593Z,28.50
2023-07-30T13:05:14.791Z,28.44
2023-07-30T13:07:41.374Z,28.25
2023-07-30T13:10:08.330Z,28.02
2023-07-30T13:12:34.846Z,28.02
2023-07-30T13:15:01.488Z,28.16
2023-07-30T13:17:28.150Z,28.26
2023-07-30T13:19:54.732Z,28.47
2023-07-30T13:22:21.233Z,28.41
2023-07-30T13:24:47.773Z,28.27
2023-07-30T13:27:14.368Z,28.42
2023-07-30T13:29:41.123Z,28.47
2023-07-30T13:32:07.797Z,28.41
2023-07-30T13:34:34.292Z,28.14
2023-07-30T13:37:00.763Z,27.97
2023-07-30T13:39:27.274Z,27.99
2023-07-30T13:41:53.757Z,27.72
2023-07-30T13:44:20.815Z,27.19
2023-07-30T13:46:47.519Z,27.12
2023-07-30T13:49:14.038Z,27.27
2023-07-30T13:51:40.862Z,27.50
2023-07-30T13:54:09.042Z,27.63
2023-07-30T13:56:35.716Z,27.68
2023-07-30T13:59:02.232Z,27.74
2023-07-30T14:01:29.388Z,27.72
2023-07-30T14:03:55.844Z,27.51
2023-07-30T14:06:22.305Z,27.40
2023-07-30T14:08:48.876Z,27.27
2023-07-30T14:11:15.829Z,27.23
2023-07-30T14:13:42.335Z,27.14
2023-07-30T14:16:09.679Z,27.19
2023-07-30T14:18:36.396Z,27.24
2023-07-30T14:21:03.932Z,27.22
2023-07-30T14:23:30.652Z,27.20
2023-07-30T14:25:57.172Z,27.25
2023-07-30T14:28:23.935Z,27.43
2023-07-30T14:30:50.455Z,27.61
2023-07-30T14:33:17.019Z,27.72
2023-07-30T14:35:43.631Z,27.74
2023-07-30T14:38:10.920Z,27.67
2023-07-30T14:40:37.477Z,27.59
2023-07-30T14:43:04.151Z,27.52
2023-07-30T14:45:30.641Z,27.33
2023-07-30T14:47:58.254Z,27.25
2023-07-30T14:50:25.112Z,27.38
2023-07-30T14:52:51.629Z,27.44
2023-07-30T14:55:18.223Z,27.48
2023-07-30T14:57:44.742Z,27.56
2023-07-30T15:00:14.110Z,27.61
2023-07-30T15:02:41.654Z,27.53
2023-07-30T15:05:08.723Z,27.50
2023-07-30T15:07:35.279Z,27.49
2023-07-30T15:10:02.048Z,27.36
2023-07-30T15:12:30.078Z,27.24
2023-07-30T15:14:58.810Z,27.06
2023-07-30T15:17:25.454Z,26.99
2023-07-30T15:19:53.894Z,26.95
2023-07-30T15:22:20.469Z,26.91
2023-07-30T15:24:46.968Z,26.91
2023-07-30T15:27:13.563Z,26.92
2023-07-30T15:29:40.070Z,26.79
2023-07-30T15:32:06.646Z,26.72
2023-07-30T15:34:33.119Z,26.72
2023-07-30T15:37:01.384Z,26.74
2023-07-30T15:39:27.941Z,26.76
2023-07-30T15:41:54.434Z,26.74
2023-07-30T15:44:20.977Z,26.79
2023-07-30T15:46:47.700Z,26.76
2023-07-30T15:49:14.329Z,26.76
2023-07-30T15:51:40.878Z,26.76
2023-07-30T15:54:07.583Z,26.80
2023-07-30T15:56:34.016Z,26.73
2023-07-30T15:59:01.111Z,26.55
2023-07-30T16:01:27.755Z,26.35
2023-07-30T16:03:54.333Z,26.29
2023-07-30T16:06:23.288Z,26.23
2023-07-30T16:08:49.896Z,26.14
2023-07-30T16:11:16.572Z,26.11
2023-07-30T16:13:43.177Z,25.78
2023-07-30T16:16:13.620Z,26.00
2023-07-30T16:18:42.532Z,25.94
2023-07-30T16:21:09.305Z,25.97
2023-07-30T16:23:35.834Z,25.91
2023-07-30T16:26:02.436Z,25.83
2023-07-30T16:28:29.045Z,25.79
2023-07-30T16:30:55.659Z,25.75
2023-07-30T16:33:22.152Z,25.72
2023-07-30T16:35:49.015Z,25.73
2023-07-30T16:38:18.971Z,25.73
2023-07-30T16:40:45.424Z,25.69
2023-07-30T16:43:12.463Z,25.62
2023-07-30T16:45:38.957Z,25.51
2023-07-30T16:48:05.554Z,25.48
2023-07-30T16:50:32.127Z,25.43
2023-07-30T16:52:58.766Z,25.36
2023-07-30T16:55:25.225Z,25.20
2023-07-30T16:57:51.686Z,25.16
2023-07-30T17:00:18.312Z,25.13
2023-07-30T17:02:44.912Z,25.10
2023-07-30T17:05:11.693Z,25.08
2023-07-30T17:07:38.201Z,25.09
2023-07-30T17:10:04.861Z,25.06
2023-07-30T17:12:31.365Z,25.09
2023-07-30T17:14:57.952Z,25.04
2023-07-30T17:17:24.514Z,24.94
2023-07-30T17:19:52.155Z,24.84
2023-07-30T17:22:18.742Z,24.87
2023-07-30T17:24:45.261Z,24.90
2023-07-30T17:27:15.001Z,24.86
2023-07-30T17:29:41.530Z,24.71
2023-07-30T17:32:08.301Z,24.67
2023-07-30T17:34:34.908Z,24.57
2023-07-30T17:37:01.449Z,24.48
2023-07-30T17:39:27.907Z,24.49
2023-07-30T17:41:54.639Z,24.52
2023-07-30T17:44:21.173Z,24.52
2023-07-30T17:46:47.863Z,24.50
2023-07-30T17:49:14.337Z,24.45
2023-07-30T17:51:40.771Z,24.29
2023-07-30T17:54:07.269Z,24.20
2023-07-30T17:56:33.707Z,24.17
2023-07-30T17:59:00.323Z,24.10
2023-07-30T18:01:26.793Z,24.00
2023-07-30T18:03:53.312Z,23.84
2023-07-30T18:06:19.865Z,23.39
2023-07-30T18:08:46.471Z,23.70
2023-07-30T18:11:12.987Z,23.77
2023-07-30T18:13:39.501Z,23.78
2023-07-30T18:16:06.165Z,23.76
2023-07-30T18:18:32.849Z,23.72
2023-07-30T18:20:59.391Z,23.61
2023-07-30T18:23:25.967Z,23.59
2023-07-30T18:25:52.939Z,23.59
2023-07-30T18:28:19.489Z,23.56
2023-07-30T18:30:45.982Z,23.56
2023-07-30T18:33:12.588Z,23.52
2023-07-30T18:35:39.643Z,23.42
2023-07-30T18:38:06.130Z,23.42
2023-07-30T18:40:35.230Z,23.46
2023-07-30T18:43:01.710Z,23.40
2023-07-30T18:45:31.502Z,23.44
2023-07-30T18:47:58.124Z,23.48
2023-07-30T18:50:24.648Z,23.48
2023-07-30T18:52:51.167Z,23.49
2023-07-30T18:55:17.707Z,23.49
2023-07-30T18:57:44.252Z,23.53
2023-07-30T19:00:11.722Z,23.52
2023-07-30T19:02:38.322Z,23.51
2023-07-30T19:05:05.070Z,23.52
2023-07-30T19:07:31.579Z,23.53
2023-07-30T19:09:58.663Z,23.54
2023-07-30T19:12:25.257Z,23.55
2023-07-30T19:14:51.821Z,23.55
2023-07-30T19:17:22.473Z,23.55
2023-07-30T19:19:49.221Z,23.52
2023-07-30T19:22:18.141Z,23.51
2023-07-30T19:24:46.325Z,23.51
2023-07-30T19:27:12.932Z,23.45
2023-07-30T19:29:39.535Z,23.41
2023-07-30T19:32:06.411Z,23.35
2023-07-30T19:34:33.155Z,23.27
2023-07-30T19:36:59.790Z,23.18
2023-07-30T19:39:26.394Z,23.12
2023-07-30T19:41:53.177Z,23.06
2023-07-30T19:44:19.693Z,23.07
2023-07-30T19:46:46.199Z,23.03
2023-07-30T19:49:12.876Z,23.04
2023-07-30T19:51:39.962Z,23.08
2023-07-30T19:54:06.596Z,23.07
2023-07-30T19:56:33.135Z,23.03
2023-07-30T19:58:59.688Z,23.02
2023-07-30T20:01:26.254Z,23.03
2023-07-30T20:03:52.812Z,23.05
2023-07-30T20:06:19.944Z,23.02
2023-07-30T20:08:46.673Z,22.98
2023-07-30T20:11:13.301Z,22.95
2023-07-30T20:13:39.838Z,22.92
2023-07-30T20:16:15.436Z,22.89
2023-07-30T20:18:42.167Z,22.86
2023-07-30T20:21:09.436Z,22.83
2023-07-30T20:23:36.298Z,22.79
2023-07-30T20:26:04.369Z,22.75
2023-07-30T20:28:30.880Z,22.75
2023-07-30T20:30:57.592Z,22.70
2023-07-30T20:33:24.061Z,22.69
2023-07-30T20:35:50.749Z,22.66
2023-07-30T20:38:17.289Z,22.63
2023-07-30T20:40:43.803Z,22.61
2023-07-30T20:43:10.281Z,22.58
2023-07-30T20:45:37.042Z,22.53
2023-07-30T20:48:03.851Z,22.51
2023-07-30T20:50:30.475Z,22.45
2023-07-30T20:52:56.963Z,22.38
2023-07-30T20:55:23.474Z,22.30
2023-07-30T20:57:49.941Z,22.23
2023-07-30T21:00:16.516Z,22.18
2023-07-30T21:02:43.190Z,22.12
2023-07-30T21:05:09.977Z,22.07
2023-07-30T21:07:36.648Z,22.00
2023-07-30T21:10:03.434Z,21.93
2023-07-30T21:12:30.131Z,21.88
2023-07-30T21:14:56.648Z,21.82
2023-07-30T21:17:23.217Z,21.75
2023-07-30T21:19:50.256Z,21.65
2023-07-30T21:22:16.872Z,21.51
2023-07-30T21:24:43.558Z,21.45
2023-07-30T21:27:10.292Z,21.42
2023-07-30T21:29:36.998Z,21.42
2023-07-30T21:32:03.773Z,21.49
2023-07-30T21:34:30.466Z,21.47
2023-07-30T21:36:56.983Z,21.43
2023-07-30T21:39:23.608Z,21.38
2023-07-30T21:41:50.183Z,21.28
2023-07-30T21:44:16.736Z,21.27
2023-07-30T21:46:43.675Z,21.31
2023-07-30T21:49:10.437Z,21.33
2023-07-30T21:51:36.962Z,21.35
2023-07-30T21:54:03.532Z,21.35
2023-07-30T21:56:30.122Z,21.37
2023-07-30T21:58:56.632Z,21.34
2023-07-30T22:01:23.240Z,21.25
2023-07-30T22:03:49.767Z,21.23
2023-07-30T22:06:16.339Z,21.24
2023-07-30T22:08:42.763Z,21.21
2023-07-30T22:11:09.265Z,21.21
2023-07-30T22:13:35.743Z,21.17
2023-07-30T22:16:02.226Z,21.15
2023-07-30T22:18:28.718Z,21.13
2023-07-30T22:20:55.261Z,21.07
2023-07-30T22:23:21.726Z,21.07
2023-07-30T22:25:48.292Z,21.05
2023-07-30T22:28:14.899Z,20.97
2023-07-30T22:30:41.656Z,20.89
2023-07-30T22:33:08.727Z,20.86
2023-07-30T22:35:35.476Z,20.85
2023-07-30T22:38:02.038Z,20.84
2023-07-30T22:40:28.992Z,20.83
2023-07-30T22:42:55.578Z,20.80
2023-07-30T22:45:22.091Z,20.77
2023-07-30T22:47:49.068Z,20.75
2023-07-30T22:50:15.630Z,20.75
2023-07-30T22:52:42.119Z,20.70
2023-07-30T22:55:08.698Z,20.66
2023-07-30T22:57:35.851Z,20.62
2023-07-30T23:00:02.383Z,20.55
2023-07-30T23:02:29.138Z,20.53
2023-07-30T23:04:55.724Z,20.51
2023-07-30T23:07:22.194Z,20.38
2023-07-30T23:09:48.703Z,20.35
2023-07-30T23:12:15.223Z,20.29
2023-07-30T23:14:41.740Z,20.24
2023-07-30T23:17:08.299Z,20.24
2023-07-30T23:19:34.803Z,20.28
2023-07-30T23:22:01.394Z,20.27
2023-07-30T23:24:27.943Z,20.16
2023-07-30T23:26:54.468Z,20.15
2023-07-30T23:29:21.016Z,20.18
2023-07-30T23:31:47.515Z,20.18
2023-07-30T23:34:14.062Z,20.11
2023-07-30T23:36:40.861Z,19.99
2023-07-30T23:39:07.695Z,19.84
2023-07-30T23:41:34.185Z,19.71
2023-07-30T23:44:00.722Z,19.64
2023-07-30T23:46:27.287Z,19.61
2023-07-30T23:48:53.806Z,19.52
2023-07-30T23:51:20.283Z,19.48
2023-07-30T23:53:46.790Z,19.52
2023-07-30T23:56:13.240Z,19.60
2023-07-30T23:58:39.754Z,19.64
